Time;durP1;ratioP1;P1;durP2;ratioP2;P2;SDS_P1;SDS_P2;PMS_P1;PMS_P2;Temp;Humidity;BMP_temperature;BMP_pressure;BME280_temperature;BME280_humidity;BME280_pressure;Samples;Min_cycle;Max_cycle;Signal;HPM_P1;HPM_P2
2024/02/16 00:00:46;;;;;;;2.10;1.15;;;;;;;;;;5017811;28;59234;-72
2024/02/16 00:03:11;;;;;;;1.90;1.77;;;;;;;;;;5017997;28;58726;-73
2024/02/16 00:05:36;;;;;;;2.10;1.57;;;;;;;;;;5019617;28;59666;-73
2024/02/16 00:08:03;;;;;;;1.63;1.53;;;;;;;;;;5018278;28;60237;-73
2024/02/16 00:10:28;;;;;;;1.52;1.42;;;;;;;;;;5021590;28;59119;-73
2024/02/16 00:12:53;;;;;;;2.40;1.80;;;;;;;;;;5019278;28;58423;-72
2024/02/16 00:15:18;;;;;;;2.38;1.30;;;;;;;;;;5018279;28;60486;-72
2024/02/16 00:17:43;;;;;;;1.70;1.33;;;;;;;;;;5020150;28;58973;-73
2024/02/16 00:20:12;;;;;;;2.97;1.37;;;;;;;;;;5020494;28;59496;-73
2024/02/16 00:22:37;;;;;;;1.58;1.05;;;;;;;;;;5018470;28;58747;-72
2024/02/16 00:25:03;;;;;;;1.48;1.35;;;;;;;;;;5018000;28;58494;-72
2024/02/16 00:27:28;;;;;;;1.70;1.60;;;;;;;;;;5018669;28;59543;-72
2024/02/16 00:29:53;;;;;;;2.88;1.75;;;;;;;;;;5018851;28;58685;-72
2024/02/16 00:32:19;;;;;;;2.05;1.40;;;;;;;;;;5016165;28;58531;-73
2024/02/16 00:34:44;;;;;;;1.80;1.25;;;;;;;;;;5021227;28;59297;-73
2024/02/16 00:37:11;;;;;;;1.27;1.17;;;;;;;;;;5015986;28;59335;-72
2024/02/16 00:39:36;;;;;;;1.23;1.13;;;;;;;;;;5023109;28;58509;-73
2024/02/16 00:42:02;;;;;;;2.27;1.53;;;;;;;;;;5020388;28;58909;-72
2024/02/16 00:44:27;;;;;;;2.30;1.65;;;;;;;;;;5021239;27;58345;-72
2024/02/16 00:46:52;;;;;;;2.97;1.42;;;;;;;;;;5023460;28;59135;-72
2024/02/16 00:49:17;;;;;;;3.03;1.67;;;;;;;;;;5020993;28;59734;-72
2024/02/16 00:51:43;;;;;;;2.07;1.37;;;;;;;;;;5017563;28;58557;-73
2024/02/16 00:54:08;;;;;;;1.70;1.30;;;;;;;;;;5018708;28;60205;-72
2024/02/16 00:56:33;;;;;;;2.78;1.98;;;;;;;;;;5017867;28;58679;-73
2024/02/16 00:58:58;;;;;;;1.55;1.38;;;;;;;;;;5022681;28;58377;-73
2024/02/16 01:01:26;;;;;;;1.73;1.63;;;;;;;;;;5024162;28;59251;-73
2024/02/16 01:03:51;;;;;;;1.53;1.37;;;;;;;;;;5028074;28;57920;-73
2024/02/16 01:06:17;;;;;;;2.33;1.33;;;;;;;;;;5027584;28;59331;-72
2024/02/16 01:08:42;;;;;;;1.92;1.38;;;;;;;;;;5024743;28;58365;-69
2024/02/16 01:11:07;;;;;;;3.13;1.97;;;;;;;;;;5024582;28;58370;-70
2024/02/16 01:13:33;;;;;;;1.40;1.10;;;;;;;;;;5024812;27;58475;-70
2024/02/16 01:15:58;;;;;;;4.30;1.42;;;;;;;;;;5023079;28;59737;-70
2024/02/16 01:18:23;;;;;;;1.40;1.30;;;;;;;;;;5026696;28;58410;-71
2024/02/16 01:20:48;;;;;;;2.97;1.83;;;;;;;;;;5022999;28;61652;-70
2024/02/16 01:23:13;;;;;;;1.27;1.17;;;;;;;;;;5022892;28;59358;-70
2024/02/16 01:25:38;;;;;;;1.23;1.03;;;;;;;;;;5025386;28;59309;-71
2024/02/16 01:28:04;;;;;;;2.40;1.77;;;;;;;;;;5023563;28;59005;-70
2024/02/16 01:30:29;;;;;;;1.48;0.98;;;;;;;;;;5026914;28;58949;-70
2024/02/16 01:32:54;;;;;;;1.88;1.23;;;;;;;;;;5022738;28;58328;-70
2024/02/16 01:35:19;;;;;;;1.07;0.80;;;;;;;;;;5023311;28;58931;-70
2024/02/16 01:37:45;;;;;;;1.40;1.23;;;;;;;;;;5022282;28;58769;-70
2024/02/16 01:40:17;;;;;;;1.08;0.90;;;;;;;;;;5023629;28;58457;-70
2024/02/16 01:42:43;;;;;;;1.75;1.65;;;;;;;;;;5019285;28;59125;-70
2024/02/16 01:45:09;;;;;;;1.83;1.17;;;;;;;;;;5024345;28;59815;-70
2024/02/16 01:47:35;;;;;;;1.38;0.93;;;;;;;;;;5022735;28;60645;-69
2024/02/16 01:50:00;;;;;;;1.98;1.02;;;;;;;;;;5025328;28;58357;-71
2024/02/16 01:52:25;;;;;;;2.03;1.17;;;;;;;;;;5023274;28;59508;-69
2024/02/16 01:54:50;;;;;;;1.67;1.23;;;;;;;;;;5024422;28;58549;-70
2024/02/16 01:57:15;;;;;;;1.53;1.10;;;;;;;;;;5025397;28;58472;-70
2024/02/16 01:59:41;;;;;;;2.07;1.30;;;;;;;;;;5022992;28;58858;-70
2024/02/16 02:02:06;;;;;;;1.15;0.73;;;;;;;;;;5023086;28;58348;-69
2024/02/16 02:04:32;;;;;;;1.00;0.95;;;;;;;;;;5024132;28;58492;-69
2024/02/16 02:06:57;;;;;;;1.13;1.00;;;;;;;;;;5023043;28;58908;-70
2024/02/16 02:09:22;;;;;;;1.35;1.25;;;;;;;;;;5024188;28;58361;-69
2024/02/16 02:11:47;;;;;;;1.88;1.25;;;;;;;;;;5025081;28;58464;-70
2024/02/16 02:14:12;;;;;;;1.67;1.40;;;;;;;;;;5024357;28;58441;-69
2024/02/16 02:16:38;;;;;;;2.15;1.50;;;;;;;;;;5025755;28;58445;-70
2024/02/16 02:19:03;;;;;;;0.95;0.95;;;;;;;;;;5025247;28;58977;-71
2024/02/16 02:21:28;;;;;;;1.33;1.07;;;;;;;;;;5024287;28;59255;-70
2024/02/16 02:23:53;;;;;;;1.27;1.05;;;;;;;;;;5025798;28;58470;-71
2024/02/16 02:26:18;;;;;;;0.93;0.90;;;;;;;;;;5025150;28;58488;-71
2024/02/16 02:28:43;;;;;;;0.80;0.80;;;;;;;;;;5027094;28;58472;-72
2024/02/16 02:31:09;;;;;;;0.85;0.75;;;;;;;;;;5025357;28;58621;-71
2024/02/16 02:33:34;;;;;;;1.20;1.10;;;;;;;;;;5021960;28;59214;-71
2024/02/16 02:35:59;;;;;;;1.90;1.40;;;;;;;;;;5025348;28;58670;-71
2024/02/16 02:38:24;;;;;;;0.90;0.70;;;;;;;;;;5026522;28;59724;-71
2024/02/16 02:40:50;;;;;;;1.40;1.30;;;;;;;;;;5024489;27;58841;-71
2024/02/16 02:43:15;;;;;;;2.38;1.35;;;;;;;;;;5024684;28;58366;-71
2024/02/16 02:45:40;;;;;;;1.20;0.98;;;;;;;;;;5024765;28;59443;-71
2024/02/16 02:48:06;;;;;;;1.35;0.98;;;;;;;;;;5024678;28;58407;-71
2024/02/16 02:50:31;;;;;;;0.70;0.70;;;;;;;;;;5025976;28;60732;-71
2024/02/16 02:52:56;;;;;;;1.33;0.98;;;;;;;;;;5022977;28;59761;-71
2024/02/16 02:55:22;;;;;;;1.00;0.95;;;;;;;;;;5024659;28;58519;-71
2024/02/16 02:57:48;;;;;;;1.13;1.00;;;;;;;;;;5022416;28;60584;-72
2024/02/16 03:00:13;;;;;;;1.65;1.00;;;;;;;;;;5022977;28;59788;-70
2024/02/16 03:02:38;;;;;;;1.13;0.90;;;;;;;;;;5025820;28;58372;-71
2024/02/16 03:05:05;;;;;;;0.63;0.63;;;;;;;;;;5023026;28;59783;-71
2024/02/16 03:07:30;;;;;;;1.40;1.30;;;;;;;;;;5024919;28;58887;-71
2024/02/16 03:09:55;;;;;;;1.53;0.80;;;;;;;;;;5025305;28;58498;-71
2024/02/16 03:12:20;;;;;;;1.02;0.93;;;;;;;;;;5023170;28;58447;-71
2024/02/16 03:14:45;;;;;;;3.25;0.70;;;;;;;;;;5023295;28;58482;-71
2024/02/16 03:17:10;;;;;;;0.88;0.75;;;;;;;;;;5023548;28;59228;-71
2024/02/16 03:19:36;;;;;;;1.55;1.35;;;;;;;;;;5022340;28;58694;-69
2024/02/16 03:22:01;;;;;;;0.85;0.82;;;;;;;;;;5022879;28;58458;-70
2024/02/16 03:24:26;;;;;;;2.05;1.02;;;;;;;;;;5022975;28;58523;-70
2024/02/16 03:26:51;;;;;;;1.43;0.90;;;;;;;;;;5022968;28;59054;-69
2024/02/16 03:29:16;;;;;;;0.73;0.73;;;;;;;;;;5020211;28;58469;-72
2024/02/16 03:31:41;;;;;;;1.08;1.00;;;;;;;;;;5022897;28;59002;-72
2024/02/16 03:34:06;;;;;;;1.02;1.00;;;;;;;;;;5025609;28;58506;-72
2024/02/16 03:36:32;;;;;;;1.67;1.07;;;;;;;;;;5040927;28;58710;-74
2024/02/16 03:38:57;;;;;;;0.93;0.70;;;;;;;;;;5024839;28;59722;-72
2024/02/16 03:41:23;;;;;;;1.23;1.13;;;;;;;;;;5025634;28;58310;-73
2024/02/16 03:43:48;;;;;;;1.85;1.55;;;;;;;;;;5028128;28;60735;-73
2024/02/16 03:46:14;;;;;;;1.10;1.00;;;;;;;;;;5026996;28;58769;-74
2024/02/16 03:48:39;;;;;;;0.80;0.60;;;;;;;;;;5025299;28;58508;-73
2024/02/16 03:51:05;;;;;;;1.15;1.10;;;;;;;;;;5027950;28;59386;-73
2024/02/16 03:53:30;;;;;;;1.05;0.80;;;;;;;;;;5025472;27;58437;-73
2024/02/16 03:55:55;;;;;;;0.47;0.47;;;;;;;;;;5026293;28;58399;-73
2024/02/16 03:58:21;;;;;;;0.80;0.70;;;;;;;;;;5027881;28;59022;-73
2024/02/16 04:00:46;;;;;;;1.15;0.90;;;;;;;;;;5026462;28;58397;-73
2024/02/16 04:03:11;;;;;;;1.85;1.00;;;;;;;;;;5024628;28;60135;-73
2024/02/16 04:05:39;;;;;;;1.30;1.20;;;;;;;;;;5025278;28;58988;-74
2024/02/16 04:08:06;;;;;;;1.27;1.20;;;;;;;;;;5026294;28;58481;-73
2024/02/16 04:10:31;;;;;;;1.27;0.93;;;;;;;;;;5025647;28;60258;-73
2024/02/16 04:12:56;;;;;;;0.80;0.80;;;;;;;;;;5025302;28;58627;-72
2024/02/16 04:15:22;;;;;;;1.20;1.00;;;;;;;;;;5028651;28;59266;-73
2024/02/16 04:17:47;;;;;;;3.45;1.90;;;;;;;;;;5024267;28;59182;-73
2024/02/16 04:20:14;;;;;;;0.60;0.50;;;;;;;;;;5023154;28;58588;-73
2024/02/16 04:22:39;;;;;;;1.70;0.90;;;;;;;;;;5025744;27;60787;-74
2024/02/16 04:25:04;;;;;;;0.75;0.75;;;;;;;;;;5023873;28;58399;-73
2024/02/16 04:27:29;;;;;;;1.10;1.00;;;;;;;;;;5026627;28;58428;-73
2024/02/16 04:29:54;;;;;;;1.27;0.98;;;;;;;;;;5025967;28;60440;-71
2024/02/16 04:32:20;;;;;;;1.23;1.13;;;;;;;;;;5023374;28;58377;-70
2024/02/16 04:34:46;;;;;;;1.43;0.80;;;;;;;;;;5020816;28;58431;-70
2024/02/16 04:37:11;;;;;;;0.85;0.73;;;;;;;;;;5025195;28;58805;-71
2024/02/16 04:39:36;;;;;;;0.70;0.70;;;;;;;;;;5026126;28;58409;-71
2024/02/16 04:42:02;;;;;;;0.50;0.50;;;;;;;;;;5025201;28;58389;-71
2024/02/16 04:44:27;;;;;;;0.93;0.85;;;;;;;;;;5024081;28;59763;-71
2024/02/16 04:46:52;;;;;;;0.63;0.63;;;;;;;;;;5024988;28;58383;-71
2024/02/16 04:49:17;;;;;;;0.70;0.70;;;;;;;;;;5024992;28;59243;-71
2024/02/16 04:51:43;;;;;;;0.80;0.80;;;;;;;;;;5025424;28;58758;-71
2024/02/16 04:54:08;;;;;;;1.23;0.83;;;;;;;;;;5026519;28;58341;-71
2024/02/16 04:56:33;;;;;;;0.90;0.80;;;;;;;;;;5021743;28;61187;-71
2024/02/16 04:58:58;;;;;;;0.75;0.73;;;;;;;;;;5027267;28;58400;-71
2024/02/16 05:01:24;;;;;;;0.60;0.50;;;;;;;;;;5022645;28;59521;-71
2024/02/16 05:03:49;;;;;;;1.08;0.70;;;;;;;;;;5017279;28;58945;-70
2024/02/16 05:06:15;;;;;;;0.70;0.47;;;;;;;;;;5023084;28;58386;-70
2024/02/16 05:08:40;;;;;;;0.90;0.80;;;;;;;;;;5020927;28;59232;-71
2024/02/16 05:11:07;;;;;;;1.40;0.93;;;;;;;;;;5019224;28;58729;-71
2024/02/16 05:13:32;;;;;;;0.98;0.80;;;;;;;;;;5020342;28;58462;-71
2024/02/16 05:15:57;;;;;;;0.93;0.85;;;;;;;;;;5022054;28;58398;-72
2024/02/16 05:18:22;;;;;;;1.23;1.13;;;;;;;;;;5022526;28;58999;-71
2024/02/16 05:20:48;;;;;;;0.70;0.70;;;;;;;;;;5022451;28;61167;-71
2024/02/16 05:23:13;;;;;;;0.90;0.90;;;;;;;;;;5022308;28;58685;-72
2024/02/16 05:25:38;;;;;;;1.13;0.93;;;;;;;;;;5023268;28;58000;-72
2024/02/16 05:28:03;;;;;;;1.30;1.20;;;;;;;;;;5024889;27;60182;-71
2024/02/16 05:30:28;;;;;;;0.50;0.50;;;;;;;;;;5023774;28;59948;-70
2024/02/16 05:32:58;;;;;;;0.67;0.67;;;;;;;;;;5025514;28;58303;-70
2024/02/16 05:35:27;;;;;;;0.98;0.60;;;;;;;;;;5025232;28;58853;-71
2024/02/16 05:37:53;;;;;;;0.85;0.75;;;;;;;;;;5025757;28;59081;-71
2024/02/16 05:40:26;;;;;;;0.57;0.50;;;;;;;;;;5026415;28;58392;-73
2024/02/16 05:42:52;;;;;;;1.35;0.70;;;;;;;;;;5023210;28;58439;-74
2024/02/16 05:45:17;;;;;;;1.37;1.10;;;;;;;;;;5022464;28;58380;-77
2024/02/16 05:47:45;;;;;;;2.30;1.25;;;;;;;;;;5023387;28;58371;-76
2024/02/16 05:50:11;;;;;;;4.90;1.60;;;;;;;;;;5022482;28;59442;-75
2024/02/16 05:52:36;;;;;;;3.10;1.85;;;;;;;;;;5023305;28;58537;-75
2024/02/16 05:55:04;;;;;;;5.43;2.17;;;;;;;;;;5025267;28;59798;-76
2024/02/16 05:57:29;;;;;;;7.37;3.20;;;;;;;;;;5027464;28;58395;-76
2024/02/16 05:59:54;;;;;;;12.85;2.92;;;;;;;;;;5027281;28;58542;-73
2024/02/16 06:02:19;;;;;;;6.93;3.20;;;;;;;;;;5023153;28;58773;-74
2024/02/16 06:04:44;;;;;;;8.30;3.57;;;;;;;;;;5024820;28;58543;-73
2024/02/16 06:07:11;;;;;;;10.27;3.60;;;;;;;;;;5025167;28;60053;-74
2024/02/16 06:09:37;;;;;;;12.85;3.92;;;;;;;;;;5025924;28;59012;-76
2024/02/16 06:12:03;;;;;;;12.20;4.25;;;;;;;;;;5023391;28;58492;-76
2024/02/16 06:14:28;;;;;;;11.38;3.88;;;;;;;;;;5022939;28;59388;-75
2024/02/16 06:16:54;;;;;;;9.10;3.70;;;;;;;;;;5025052;28;58827;-75
2024/02/16 06:19:19;;;;;;;10.93;4.20;;;;;;;;;;5024745;28;58442;-75
2024/02/16 06:21:44;;;;;;;11.57;4.93;;;;;;;;;;5024017;28;59199;-74
2024/02/16 06:24:09;;;;;;;12.20;5.13;;;;;;;;;;5024851;28;58574;-73
2024/02/16 06:26:34;;;;;;;17.45;5.93;;;;;;;;;;5023042;28;59230;-73
2024/02/16 06:28:59;;;;;;;20.77;6.87;;;;;;;;;;5022919;28;59166;-72
2024/02/16 06:31:24;;;;;;;13.95;4.80;;;;;;;;;;5021333;28;58421;-72
2024/02/16 06:33:50;;;;;;;12.55;5.03;;;;;;;;;;5024796;28;58369;-73
2024/02/16 06:36:15;;;;;;;15.35;5.85;;;;;;;;;;5023765;28;58663;-77
2024/02/16 06:38:40;;;;;;;15.18;4.85;;;;;;;;;;5020513;28;58419;-75
2024/02/16 06:41:05;;;;;;;18.88;5.05;;;;;;;;;;5024029;28;58735;-75
2024/02/16 06:43:31;;;;;;;14.00;6.30;;;;;;;;;;5022640;28;59809;-74
2024/02/16 06:45:56;;;;;;;22.17;7.60;;;;;;;;;;5022278;28;59387;-75
2024/02/16 06:48:22;;;;;;;16.38;7.38;;;;;;;;;;5022511;28;60716;-72
2024/02/16 06:50:47;;;;;;;27.05;8.63;;;;;;;;;;5021992;28;60455;-71
2024/02/16 06:53:12;;;;;;;20.92;8.23;;;;;;;;;;5022441;28;59313;-71
2024/02/16 06:55:37;;;;;;;20.80;7.90;;;;;;;;;;5022371;28;59944;-71
2024/02/16 06:58:02;;;;;;;21.30;7.80;;;;;;;;;;5023387;28;58515;-71
2024/02/16 07:00:28;;;;;;;20.00;7.90;;;;;;;;;;5025210;28;59785;-72
2024/02/16 07:02:54;;;;;;;21.98;8.55;;;;;;;;;;5022900;28;59250;-71
2024/02/16 07:05:19;;;;;;;25.93;7.73;;;;;;;;;;5024540;28;58456;-72
2024/02/16 07:07:44;;;;;;;22.67;8.67;;;;;;;;;;5023968;28;59122;-71
2024/02/16 07:10:13;;;;;;;21.10;9.20;;;;;;;;;;5025556;28;58371;-72
2024/02/16 07:12:38;;;;;;;20.45;8.30;;;;;;;;;;5027684;28;59558;-72
2024/02/16 07:15:03;;;;;;;17.83;7.50;;;;;;;;;;5026172;28;58739;-71
2024/02/16 07:17:29;;;;;;;15.75;7.05;;;;;;;;;;5025070;28;58417;-71
2024/02/16 07:19:54;;;;;;;15.43;7.43;;;;;;;;;;5026928;28;59332;-73
2024/02/16 07:22:19;;;;;;;15.00;6.68;;;;;;;;;;5027065;28;59242;-74
2024/02/16 07:24:44;;;;;;;23.50;7.88;;;;;;;;;;5027742;28;58520;-72
2024/02/16 07:27:10;;;;;;;28.83;9.05;;;;;;;;;;5029732;28;59193;-74
2024/02/16 07:29:38;;;;;;;14.60;6.43;;;;;;;;;;5029743;28;58318;-72
2024/02/16 07:32:03;;;;;;;17.20;8.30;;;;;;;;;;5028668;27;60066;-72
2024/02/16 07:34:28;;;;;;;16.80;6.73;;;;;;;;;;5030657;28;59904;-73
2024/02/16 07:36:54;;;;;;;22.23;9.73;;;;;;;;;;5030133;28;58416;-72
2024/02/16 07:39:22;;;;;;;20.73;7.47;;;;;;;;;;5029378;28;60785;-74
2024/02/16 07:41:47;;;;;;;24.90;7.35;;;;;;;;;;5027706;28;59105;-73
2024/02/16 07:44:12;;;;;;;22.40;8.53;;;;;;;;;;5025723;28;58578;-74
2024/02/16 07:46:41;;;;;;;29.33;8.88;;;;;;;;;;5029058;28;59306;-72
2024/02/16 07:49:06;;;;;;;18.85;7.40;;;;;;;;;;5028866;28;58429;-73
2024/02/16 07:51:32;;;;;;;19.83;8.40;;;;;;;;;;5027964;28;58720;-73
2024/02/16 07:53:57;;;;;;;15.25;7.00;;;;;;;;;;5027332;28;59011;-73
2024/02/16 07:56:22;;;;;;;20.92;9.40;;;;;;;;;;5025421;28;58440;-72
2024/02/16 07:58:47;;;;;;;16.85;7.70;;;;;;;;;;5025863;28;58641;-72
2024/02/16 08:01:15;;;;;;;19.10;8.80;;;;;;;;;;5027849;28;59030;-72
2024/02/16 08:03:41;;;;;;;10.90;6.57;;;;;;;;;;5030362;28;58416;-72
2024/02/16 08:06:06;;;;;;;22.27;7.78;;;;;;;;;;5027662;28;59527;-73
2024/02/16 08:08:31;;;;;;;24.23;8.83;;;;;;;;;;5030446;28;59195;-78
2024/02/16 08:10:56;;;;;;;20.42;8.13;;;;;;;;;;5028135;28;59970;-76
2024/02/16 08:13:22;;;;;;;26.95;8.05;;;;;;;;;;5028165;28;58632;-77
2024/02/16 08:15:47;;;;;;;20.17;7.13;;;;;;;;;;5030394;28;58472;-77
2024/02/16 08:18:13;;;;;;;20.73;8.95;;;;;;;;;;5028614;28;60375;-78
2024/02/16 08:20:38;;;;;;;23.37;7.53;;;;;;;;;;5028443;28;59761;-77
2024/02/16 08:23:04;;;;;;;24.10;8.57;;;;;;;;;;5029428;28;58671;-77
2024/02/16 08:25:30;;;;;;;16.52;8.35;;;;;;;;;;5028191;28;60501;-77
2024/02/16 08:27:55;;;;;;;17.13;8.50;;;;;;;;;;5021762;28;58919;-77
2024/02/16 08:30:20;;;;;;;23.17;8.68;;;;;;;;;;5031037;28;58425;-77
2024/02/16 08:32:45;;;;;;;23.53;7.90;;;;;;;;;;5026825;28;59766;-76
2024/02/16 08:35:11;;;;;;;15.70;7.53;;;;;;;;;;5027232;27;58391;-78
2024/02/16 08:37:36;;;;;;;16.95;7.90;;;;;;;;;;5029979;28;59406;-77
2024/02/16 08:40:01;;;;;;;19.95;7.40;;;;;;;;;;5026762;27;58735;-77
2024/02/16 08:42:26;;;;;;;18.13;8.38;;;;;;;;;;5028358;28;58455;-77
2024/02/16 08:44:51;;;;;;;16.05;7.15;;;;;;;;;;5026662;28;58836;-76
2024/02/16 08:47:17;;;;;;;15.90;6.80;;;;;;;;;;5024942;28;59719;-76
2024/02/16 08:49:42;;;;;;;17.05;7.80;;;;;;;;;;5027653;28;58457;-77
2024/02/16 08:52:07;;;;;;;18.70;6.67;;;;;;;;;;5027311;28;58548;-77
2024/02/16 08:54:32;;;;;;;18.42;9.20;;;;;;;;;;5028346;28;58483;-78
2024/02/16 08:56:58;;;;;;;18.55;7.10;;;;;;;;;;5024665;28;59116;-77
2024/02/16 08:59:23;;;;;;;16.50;7.80;;;;;;;;;;5027884;27;59085;-77
2024/02/16 09:01:48;;;;;;;16.20;7.97;;;;;;;;;;5027763;27;58777;-77
2024/02/16 09:04:13;;;;;;;14.68;6.20;;;;;;;;;;5029825;28;60441;-78
2024/02/16 09:06:38;;;;;;;16.50;7.68;;;;;;;;;;5027509;28;58499;-76
2024/02/16 09:09:04;;;;;;;19.65;8.27;;;;;;;;;;5028082;28;58418;-71
2024/02/16 09:11:29;;;;;;;16.83;7.22;;;;;;;;;;5028351;28;58594;-72
2024/02/16 09:13:54;;;;;;;21.67;6.67;;;;;;;;;;5029106;28;59879;-72
2024/02/16 09:16:20;;;;;;;20.63;7.78;;;;;;;;;;5027760;28;60538;-72
2024/02/16 09:18:45;;;;;;;16.60;7.78;;;;;;;;;;5026998;28;58535;-72
2024/02/16 09:21:10;;;;;;;13.95;6.82;;;;;;;;;;5024224;28;58380;-72
2024/02/16 09:23:36;;;;;;;19.67;7.43;;;;;;;;;;5029138;27;58908;-71
2024/02/16 09:26:01;;;;;;;16.45;7.30;;;;;;;;;;5025199;28;58740;-71
2024/02/16 09:28:27;;;;;;;15.80;6.72;;;;;;;;;;5031132;28;58964;-72
2024/02/16 09:30:54;;;;;;;15.50;6.80;;;;;;;;;;5024616;28;60371;-73
2024/02/16 09:33:20;;;;;;;20.73;6.70;;;;;;;;;;5025999;28;58396;-72
2024/02/16 09:35:46;;;;;;;17.63;6.80;;;;;;;;;;5024512;28;58419;-71
2024/02/16 09:38:11;;;;;;;14.37;6.23;;;;;;;;;;5026567;28;58561;-71
2024/02/16 09:40:36;;;;;;;16.50;6.60;;;;;;;;;;5026574;28;58693;-71
2024/02/16 09:43:02;;;;;;;17.25;7.63;;;;;;;;;;5026473;28;59121;-72
2024/02/16 09:45:28;;;;;;;14.60;7.38;;;;;;;;;;5027232;28;59877;-71
2024/02/16 09:47:54;;;;;;;13.25;6.93;;;;;;;;;;5027562;28;58508;-72
2024/02/16 09:50:20;;;;;;;16.00;7.15;;;;;;;;;;5027058;28;60290;-73
2024/02/16 09:52:47;;;;;;;14.82;5.65;;;;;;;;;;5026648;28;58446;-72
2024/02/16 09:55:12;;;;;;;15.50;5.57;;;;;;;;;;5025865;28;58488;-71
2024/02/16 09:57:38;;;;;;;13.23;5.57;;;;;;;;;;5028504;28;58544;-71
2024/02/16 10:00:06;;;;;;;22.20;7.07;;;;;;;;;;5028024;28;58374;-72
2024/02/16 10:02:44;;;;;;;13.70;6.57;;;;;;;;;;5029583;28;58959;-72
2024/02/16 10:05:10;;;;;;;13.27;7.18;;;;;;;;;;5025977;28;59760;-72
2024/02/16 10:07:35;;;;;;;16.70;6.78;;;;;;;;;;5026572;28;58446;-72
2024/02/16 10:10:00;;;;;;;13.05;6.70;;;;;;;;;;5028960;28;60124;-72
2024/02/16 10:12:26;;;;;;;10.98;6.45;;;;;;;;;;5027307;28;59169;-71
2024/02/16 10:14:56;;;;;;;13.05;5.57;;;;;;;;;;5025908;28;58555;-72
2024/02/16 10:17:21;;;;;;;14.52;6.38;;;;;;;;;;5027292;28;58869;-71
2024/02/16 10:19:55;;;;;;;11.70;4.88;;;;;;;;;;5027145;28;58400;-71
2024/02/16 10:22:20;;;;;;;16.75;6.40;;;;;;;;;;5027591;28;59337;-71
2024/02/16 10:24:46;;;;;;;10.50;5.15;;;;;;;;;;5025542;28;58907;-71
2024/02/16 10:27:17;;;;;;;12.97;5.77;;;;;;;;;;5026354;28;58195;-70
2024/02/16 10:29:53;;;;;;;9.77;5.88;;;;;;;;;;5023839;28;59320;-76
2024/02/16 10:32:19;;;;;;;12.82;6.35;;;;;;;;;;5017194;28;58396;-76
2024/02/16 10:34:45;;;;;;;10.38;5.20;;;;;;;;;;5027364;28;58327;-76
2024/02/16 10:37:11;;;;;;;8.60;5.32;;;;;;;;;;5025637;28;58532;-76
2024/02/16 10:39:39;;;;;;;13.88;6.35;;;;;;;;;;5023476;28;59209;-76
2024/02/16 10:42:04;;;;;;;11.98;5.60;;;;;;;;;;5021943;28;60287;-76
2024/02/16 10:44:30;;;;;;;15.60;5.43;;;;;;;;;;5023461;28;58505;-75
2024/02/16 10:46:58;;;;;;;14.13;6.93;;;;;;;;;;5024155;28;58381;-76
2024/02/16 10:49:26;;;;;;;15.18;5.32;;;;;;;;;;5023291;28;59298;-75
2024/02/16 10:51:51;;;;;;;;;;;;;;;;;;5024003;28;58350;-76
2024/02/16 10:54:19;;;;;;;12.55;5.28;;;;;;;;;;5024148;28;58387;-79
2024/02/16 10:56:44;;;;;;;9.67;5.17;;;;;;;;;;5024273;28;58591;-78
2024/02/16 10:59:10;;;;;;;14.30;6.05;;;;;;;;;;5026276;28;58629;-77
2024/02/16 11:01:40;;;;;;;14.32;5.88;;;;;;;;;;5026122;28;58508;-77
2024/02/16 11:04:08;;;;;;;9.43;5.55;;;;;;;;;;5021666;28;59085;-76
2024/02/16 11:06:43;;;;;;;13.38;5.38;;;;;;;;;;5025308;28;58445;-77
2024/02/16 11:09:10;;;;;;;10.25;4.95;;;;;;;;;;5025104;28;59611;-77
2024/02/16 11:11:36;;;;;;;16.08;6.35;;;;;;;;;;5023312;28;59691;-76
2024/02/16 11:14:02;;;;;;;19.05;6.43;;;;;;;;;;5024319;28;58392;-75
2024/02/16 11:16:27;;;;;;;9.13;5.75;;;;;;;;;;5021258;28;58490;-76
2024/02/16 11:18:52;;;;;;;7.73;4.43;;;;;;;;;;5019547;28;58492;-77
2024/02/16 11:21:17;;;;;;;10.43;5.82;;;;;;;;;;5021076;28;58435;-77
2024/02/16 11:23:44;;;;;;;13.43;6.18;;;;;;;;;;5022716;28;59190;-76
2024/02/16 11:26:11;;;;;;;12.05;5.85;;;;;;;;;;5022397;28;58496;-77
2024/02/16 11:28:37;;;;;;;14.32;5.95;;;;;;;;;;5024329;28;59401;-76
2024/02/16 11:31:02;;;;;;;12.45;5.57;;;;;;;;;;5022291;28;60630;-75
2024/02/16 11:33:28;;;;;;;11.35;6.03;;;;;;;;;;5023894;28;58751;-77
2024/02/16 11:35:58;;;;;;;13.00;5.47;;;;;;;;;;5024454;28;60422;-77
2024/02/16 11:38:24;;;;;;;14.90;5.97;;;;;;;;;;5024763;28;58588;-77
2024/02/16 11:41:15;;;;;;;14.07;6.60;;;;;;;;;;5024694;28;58547;-76
2024/02/16 11:43:40;;;;;;;12.65;5.43;;;;;;;;;;5024204;28;59517;-76
2024/02/16 11:46:13;;;;;;;16.33;4.87;;;;;;;;;;5024473;28;59013;-77
2024/02/16 11:48:38;;;;;;;9.75;6.25;;;;;;;;;;5026779;28;59845;-77
2024/02/16 11:51:03;;;;;;;10.77;5.20;;;;;;;;;;5022501;28;58773;-76
2024/02/16 11:53:29;;;;;;;7.00;4.57;;;;;;;;;;5021108;28;58390;-76
2024/02/16 11:55:54;;;;;;;15.55;5.88;;;;;;;;;;5022382;28;59112;-75
2024/02/16 11:58:20;;;;;;;10.33;4.47;;;;;;;;;;5017513;28;59034;-76
2024/02/16 12:00:47;;;;;;;7.85;4.50;;;;;;;;;;5021238;28;58080;-76
2024/02/16 12:03:17;;;;;;;9.02;4.65;;;;;;;;;;5021358;28;59528;-76
2024/02/16 12:05:49;;;;;;;10.80;5.50;;;;;;;;;;5024986;28;58625;-76
2024/02/16 12:08:15;;;;;;;14.45;6.15;;;;;;;;;;5026349;28;59500;-75
2024/02/16 12:10:42;;;;;;;8.48;5.03;;;;;;;;;;5022888;28;59114;-75
2024/02/16 12:13:08;;;;;;;10.98;6.03;;;;;;;;;;5025825;28;58493;-76
2024/02/16 12:15:33;;;;;;;10.38;4.72;;;;;;;;;;5026417;28;58557;-77
2024/02/16 12:18:00;;;;;;;11.77;5.85;;;;;;;;;;5025052;28;58701;-75
2024/02/16 12:20:25;;;;;;;10.55;5.70;;;;;;;;;;5025512;28;58399;-77
2024/02/16 12:22:51;;;;;;;8.03;5.50;;;;;;;;;;5025433;28;58696;-75
2024/02/16 12:25:16;;;;;;;10.15;4.20;;;;;;;;;;5022891;28;58496;-76
2024/02/16 12:27:41;;;;;;;10.95;5.85;;;;;;;;;;5025550;28;58418;-76
2024/02/16 12:30:07;;;;;;;11.57;5.77;;;;;;;;;;5029115;28;58372;-77
2024/02/16 12:32:32;;;;;;;8.90;4.55;;;;;;;;;;5025951;28;58419;-76
2024/02/16 12:34:57;;;;;;;13.40;5.23;;;;;;;;;;5025600;28;58761;-76
2024/02/16 12:37:22;;;;;;;9.00;4.17;;;;;;;;;;5025373;28;59758;-76
2024/02/16 12:39:47;;;;;;;8.17;5.20;;;;;;;;;;5027789;28;58438;-71
2024/02/16 12:42:14;;;;;;;9.23;4.97;;;;;;;;;;5024040;28;60552;-71
2024/02/16 12:44:39;;;;;;;10.82;6.60;;;;;;;;;;5025299;28;59282;-71
2024/02/16 12:47:05;;;;;;;9.27;4.83;;;;;;;;;;5027337;28;58408;-72
2024/02/16 12:49:30;;;;;;;9.65;4.75;;;;;;;;;;5025248;28;61373;-76
2024/02/16 12:51:56;;;;;;;14.60;6.83;;;;;;;;;;5026234;28;58436;-75
2024/02/16 12:54:22;;;;;;;10.23;5.50;;;;;;;;;;5027063;28;60124;-77
2024/02/16 12:56:48;;;;;;;10.13;5.53;;;;;;;;;;5025950;28;58804;-75
2024/02/16 12:59:13;;;;;;;7.32;4.43;;;;;;;;;;5026972;28;58461;-76
2024/02/16 13:01:38;;;;;;;7.80;4.07;;;;;;;;;;5026705;28;60004;-75
2024/02/16 13:04:04;;;;;;;10.40;5.07;;;;;;;;;;5026046;28;58433;-76
2024/02/16 13:06:29;;;;;;;10.40;4.75;;;;;;;;;;5026457;28;58438;-77
2024/02/16 13:08:54;;;;;;;8.87;4.13;;;;;;;;;;5029893;28;59638;-77
2024/02/16 13:11:20;;;;;;;8.87;4.47;;;;;;;;;;5025092;28;58518;-75
2024/02/16 13:13:45;;;;;;;7.30;4.60;;;;;;;;;;5027867;28;59443;-76
2024/02/16 13:16:10;;;;;;;11.27;5.28;;;;;;;;;;5024012;28;58566;-76
2024/02/16 13:18:35;;;;;;;14.35;5.20;;;;;;;;;;5027381;28;58807;-77
2024/02/16 13:21:00;;;;;;;8.93;5.25;;;;;;;;;;5027883;28;60242;-75
2024/02/16 13:23:25;;;;;;;8.17;4.53;;;;;;;;;;5026982;28;59983;-76
2024/02/16 13:25:51;;;;;;;8.55;4.82;;;;;;;;;;5030004;28;58509;-75
2024/02/16 13:28:16;;;;;;;6.57;4.10;;;;;;;;;;5025988;28;59315;-75
2024/02/16 13:30:41;;;;;;;10.93;4.67;;;;;;;;;;5025898;28;58963;-75
2024/02/16 13:33:09;;;;;;;10.98;4.30;;;;;;;;;;5027695;28;58554;-76
2024/02/16 13:35:35;;;;;;;12.13;4.60;;;;;;;;;;5026381;28;58909;-76
2024/02/16 13:38:00;;;;;;;11.77;4.95;;;;;;;;;;5026305;28;58519;-76
2024/02/16 13:40:25;;;;;;;6.88;5.13;;;;;;;;;;5027572;28;59116;-76
2024/02/16 13:42:51;;;;;;;8.18;4.60;;;;;;;;;;5027027;28;58563;-76
2024/02/16 13:45:16;;;;;;;10.90;5.17;;;;;;;;;;5030616;28;58501;-76
2024/02/16 13:47:41;;;;;;;7.10;5.47;;;;;;;;;;5029369;28;58866;-76
2024/02/16 13:50:07;;;;;;;7.83;5.33;;;;;;;;;;5027922;28;58772;-72
2024/02/16 13:52:32;;;;;;;16.40;4.72;;;;;;;;;;5025267;28;58376;-72
2024/02/16 13:54:57;;;;;;;11.80;4.85;;;;;;;;;;5027931;28;58545;-71
2024/02/16 13:57:22;;;;;;;13.23;5.47;;;;;;;;;;5023207;28;58450;-72
2024/02/16 13:59:48;;;;;;;8.43;4.68;;;;;;;;;;5025286;28;59354;-72
2024/02/16 14:02:13;;;;;;;5.53;3.83;;;;;;;;;;5025293;28;58548;-72
2024/02/16 14:04:38;;;;;;;8.80;4.37;;;;;;;;;;5024525;28;57861;-71
2024/02/16 14:07:03;;;;;;;7.22;4.35;;;;;;;;;;5025734;28;59079;-72
2024/02/16 14:09:28;;;;;;;7.07;4.23;;;;;;;;;;5025577;28;59569;-72
2024/02/16 14:11:55;;;;;;;8.10;4.80;;;;;;;;;;5027955;28;58354;-71
2024/02/16 14:14:21;;;;;;;8.63;4.60;;;;;;;;;;5026332;28;58473;-72
2024/02/16 14:16:47;;;;;;;11.10;5.07;;;;;;;;;;5021465;28;58663;-72
2024/02/16 14:19:12;;;;;;;6.50;4.05;;;;;;;;;;5025356;28;59436;-72
2024/02/16 14:21:37;;;;;;;7.97;3.08;;;;;;;;;;5026900;28;58699;-72
2024/02/16 14:24:02;;;;;;;9.20;3.80;;;;;;;;;;5023480;28;58429;-72
2024/02/16 14:26:27;;;;;;;6.97;4.33;;;;;;;;;;5024929;28;60112;-72
2024/02/16 14:28:53;;;;;;;7.38;4.50;;;;;;;;;;5025591;28;58610;-73